Time;durP1;ratioP1;P1;durP2;ratioP2;P2;SDS_P1;SDS_P2;PMS_P1;PMS_P2;Temp;Humidity;BMP_temperature;BMP_pressure;BME280_temperature;BME280_humidity;BME280_pressure;Samples;Min_cycle;Max_cycle;Signal;HPM_P1;HPM_P2
2023/03/04 00:02:21;;;;;;;62.60;30.40;;;;;;;0.15;92.12;98939.31;108041;1307;22288;-40
2023/03/04 00:04:46;;;;;;;60.60;30.20;;;;;;;0.12;92.27;98932.99;108038;1307;22430;-40
2023/03/04 00:07:15;;;;;;;59.00;29.00;;;;;;;0.12;92.57;98924.02;108011;1307;23002;-40
2023/03/04 00:09:43;;;;;;;65.90;31.30;;;;;;;0.12;92.50;98920.23;108029;1307;22384;-41
2023/03/04 00:12:08;;;;;;;62.80;30.00;;;;;;;0.14;92.37;98918.12;108035;1307;23083;-40
2023/03/04 00:14:34;;;;;;;65.10;31.90;;;;;;;0.15;92.50;98919.66;107996;1307;22220;-40
2023/03/04 00:17:02;;;;;;;71.80;33.80;;;;;;;0.11;92.98;98921.63;108031;1307;22924;-40
2023/03/04 00:19:27;;;;;;;68.40;33.00;;;;;;;0.10;93.81;98921.32;108027;1307;22248;-40
2023/03/04 00:21:53;;;;;;;72.80;34.10;;;;;;;0.03;94.31;98923.33;108014;1307;22317;-41
2023/03/04 00:24:18;;;;;;;73.00;33.70;;;;;;;-0.04;94.70;98924.84;108024;1307;22468;-40
2023/03/04 00:26:45;;;;;;;63.30;30.20;;;;;;;-0.05;94.93;98922.09;108008;1307;22406;-40
2023/03/04 00:29:11;;;;;;;74.90;34.50;;;;;;;-0.07;95.54;98924.03;108038;1307;22199;-41
2023/03/04 00:31:36;;;;;;;69.30;32.10;;;;;;;-0.08;95.95;98922.16;108028;1307;22335;-41
2023/03/04 00:34:02;;;;;;;64.80;29.00;;;;;;;-0.13;96.12;98919.65;108018;1307;22238;-41
2023/03/04 00:36:27;;;;;;;52.70;24.00;;;;;;;-0.12;95.38;98914.80;108030;1307;22258;-39
2023/03/04 00:38:52;;;;;;;54.50;25.40;;;;;;;-0.16;95.44;98907.14;108022;1307;24164;-40
2023/03/04 00:41:18;;;;;;;43.10;23.00;;;;;;;-0.21;95.36;98910.86;108021;1307;22228;-39
2023/03/04 00:43:52;;;;;;;41.80;22.40;;;;;;;-0.27;95.78;98908.71;108032;1307;22254;-40
2023/03/04 00:46:17;;;;;;;48.70;22.30;;;;;;;-0.28;96.00;98899.44;107620;1307;22257;-40
2023/03/04 00:48:42;;;;;;;37.20;18.30;;;;;;;-0.28;95.76;98898.91;108013;1307;22976;-41
2023/03/04 00:51:08;;;;;;;35.10;18.00;;;;;;;-0.31;95.88;98893.45;108032;1307;22375;-41
2023/03/04 00:53:33;;;;;;;38.30;18.70;;;;;;;-0.29;95.85;98890.15;108035;1307;22343;-40
2023/03/04 00:55:58;;;;;;;32.90;17.90;;;;;;;-0.29;96.21;98898.06;108039;1307;22236;-41
2023/03/04 00:58:23;;;;;;;30.50;15.90;;;;;;;-0.29;96.28;98877.91;107798;1307;22410;-39
2023/03/04 01:00:49;;;;;;;36.50;16.70;;;;;;;-0.29;96.68;98872.75;108015;1307;22404;-40
2023/03/04 01:03:25;;;;;;;33.00;17.80;;;;;;;-0.23;96.65;98868.67;108021;1307;23070;-40
2023/03/04 01:05:51;;;;;;;31.60;16.80;;;;;;;-0.21;96.76;98867.77;108044;1307;22230;-41
2023/03/04 01:08:16;;;;;;;33.70;17.20;;;;;;;-0.15;96.42;98859.22;108063;1307;22216;-41
2023/03/04 01:10:41;;;;;;;38.10;19.10;;;;;;;-0.15;96.43;98854.56;108020;1307;22205;-41
2023/03/04 01:13:06;;;;;;;33.10;16.30;;;;;;;-0.09;96.68;98852.89;108034;1307;23061;-39
2023/03/04 01:15:44;;;;;;;32.70;17.70;;;;;;;-0.09;96.89;98852.39;108014;1307;22244;-39
2023/03/04 01:18:09;;;;;;;;;;;;;;;-0.07;96.83;98848.20;108043;1307;22415;-39
2023/03/04 01:20:34;;;;;;;38.70;19.30;;;;;;;-0.06;97.18;98842.16;108007;1307;22446;-40
2023/03/04 01:23:00;;;;;;;48.40;20.80;;;;;;;-0.07;96.97;98839.08;108043;1307;22216;-39
2023/03/04 01:25:25;;;;;;;39.90;19.30;;;;;;;-0.06;97.37;98838.03;108029;1307;22260;-40
2023/03/04 01:27:50;;;;;;;35.90;18.60;;;;;;;-0.08;97.52;98830.81;108034;1307;22119;-40
2023/03/04 01:30:16;;;;;;;36.90;18.20;;;;;;;0.00;97.14;98831.01;108041;1307;22287;-40
2023/03/04 01:32:43;;;;;;;38.90;20.00;;;;;;;0.03;96.79;98831.48;108022;1307;22494;-40
2023/03/04 01:35:08;;;;;;;37.60;19.20;;;;;;;0.05;96.51;98827.48;107471;1307;23659;-40
2023/03/04 01:37:33;;;;;;;37.50;19.90;;;;;;;0.06;96.35;98818.67;108053;1307;22274;-41
2023/03/04 01:39:59;;;;;;;36.80;18.80;;;;;;;0.08;96.42;98817.59;108020;1307;22398;-40
2023/03/04 01:42:26;;;;;;;37.00;18.60;;;;;;;0.13;96.40;98810.59;108029;1307;22113;-44
2023/03/04 01:44:52;;;;;;;41.40;20.10;;;;;;;0.14;96.07;98808.85;108017;1307;22252;-45
2023/03/04 01:47:19;;;;;;;38.90;20.00;;;;;;;0.14;95.89;98802.80;108036;1307;22389;-41
2023/03/04 01:49:53;;;;;;;35.70;18.20;;;;;;;0.14;96.10;98796.09;107820;1307;22989;-41
2023/03/04 01:52:27;;;;;;;41.60;20.20;;;;;;;0.16;95.99;98797.77;108022;1307;23184;-40
2023/03/04 01:54:53;;;;;;;37.00;18.70;;;;;;;0.20;95.53;98789.60;108029;1307;22163;-41
2023/03/04 01:57:25;;;;;;;39.10;20.10;;;;;;;0.24;95.14;98787.42;107982;1307;22129;-41
2023/03/04 02:00:22;;;;;;;33.90;18.70;;;;;;;0.24;95.09;98784.16;108033;1307;23280;-41
2023/03/04 02:02:50;;;;;;;39.70;20.20;;;;;;;0.24;95.17;98775.34;107698;1307;22625;-40
2023/03/04 02:05:16;;;;;;;35.30;17.90;;;;;;;0.30;94.73;98771.44;108017;1307;22928;-41
2023/03/04 02:07:42;;;;;;;31.50;15.90;;;;;;;0.34;94.50;98772.71;108052;1307;22278;-41
2023/03/04 02:10:08;;;;;;;41.40;19.30;;;;;;;0.34;94.17;98763.07;108028;1307;22492;-40
2023/03/04 02:12:34;;;;;;;31.50;15.80;;;;;;;0.34;94.20;98753.94;108037;1307;23520;-40
2023/03/04 02:14:59;;;;;;;35.20;17.60;;;;;;;0.35;93.88;98750.64;107571;1307;22226;-40
2023/03/04 02:17:26;;;;;;;31.90;17.00;;;;;;;0.33;94.08;98744.64;108030;1307;23012;-41
2023/03/04 02:19:58;;;;;;;31.40;17.00;;;;;;;0.39;93.98;98744.69;107602;1307;22139;-40
2023/03/04 02:22:23;;;;;;;27.60;15.20;;;;;;;0.46;93.68;98737.27;108043;1307;22237;-40
2023/03/04 02:25:02;;;;;;;30.50;15.80;;;;;;;0.52;93.28;98734.89;108040;1307;22621;-40
2023/03/04 02:27:27;;;;;;;26.70;14.90;;;;;;;0.58;92.84;98725.63;108033;1307;22252;-41
2023/03/04 02:29:53;;;;;;;30.20;16.40;;;;;;;0.59;92.55;98719.05;107800;1301;22222;-41
2023/03/04 02:32:18;;;;;;;32.90;16.10;;;;;;;0.59;92.43;98719.04;108037;1307;22227;-41
2023/03/04 02:34:48;;;;;;;32.00;15.60;;;;;;;0.60;92.20;98718.15;108030;1307;22896;-41
2023/03/04 02:37:14;;;;;;;30.10;15.40;;;;;;;0.66;91.87;98712.83;108037;1307;22576;-41
2023/03/04 02:39:42;;;;;;;26.70;15.00;;;;;;;0.63;91.63;98707.20;108044;1307;22184;-41
2023/03/04 02:42:08;;;;;;;;;;;;;;;0.66;91.48;98701.95;108059;1307;22421;-44
2023/03/04 02:44:35;;;;;;;26.80;14.50;;;;;;;0.67;91.27;98692.46;108010;1307;22240;-44
2023/03/04 02:47:03;;;;;;;25.60;13.80;;;;;;;0.66;91.26;98694.02;108025;1283;22213;-41
2023/03/04 02:49:30;;;;;;;27.10;15.00;;;;;;;0.70;90.99;98691.17;108030;1307;22423;-41
2023/03/04 02:52:13;;;;;;;26.20;15.50;;;;;;;0.72;90.72;98684.70;108026;1307;23068;-42
2023/03/04 02:54:39;;;;;;;26.00;14.40;;;;;;;0.74;90.59;98689.68;108038;1307;22943;-42
2023/03/04 02:57:08;;;;;;;29.60;14.90;;;;;;;0.74;90.25;98683.11;108065;1307;22408;-41
2023/03/04 02:59:35;;;;;;;25.30;14.90;;;;;;;0.77;90.15;98673.90;108038;1307;22409;-41
2023/03/04 03:02:00;;;;;;;26.90;15.90;;;;;;;0.81;90.08;98670.36;108041;1307;22220;-41
2023/03/04 03:06:11;;;;;;;30.00;15.20;;;;;;;0.85;89.69;98657.50;107536;1299;545788;-40
2023/03/04 03:08:37;;;;;;;27.70;15.50;;;;;;;0.82;89.69;98650.31;107810;1308;22221;-41
2023/03/04 03:11:02;;;;;;;30.20;16.10;;;;;;;0.77;89.67;98642.17;107828;1308;23180;-41
2023/03/04 03:13:27;;;;;;;27.50;15.30;;;;;;;0.80;89.64;98633.11;107378;1308;22331;-39
2023/03/04 03:15:53;;;;;;;27.50;15.40;;;;;;;0.83;89.45;98629.42;107827;1308;23078;-40
2023/03/04 03:18:19;;;;;;;31.50;15.10;;;;;;;0.86;89.29;98625.70;107662;1308;23109;-42
2023/03/04 03:20:44;;;;;;;30.80;15.80;;;;;;;0.83;89.16;98621.64;107932;1306;107128;-41
2023/03/04 03:23:10;;;;;;;27.40;15.20;;;;;;;0.84;89.20;98616.96;108015;1306;22421;-43
2023/03/04 03:25:35;;;;;;;33.10;16.90;;;;;;;0.88;89.06;98605.63;108027;1305;22222;-41
2023/03/04 03:28:00;;;;;;;34.50;16.70;;;;;;;0.85;89.11;98598.46;107912;1299;22237;-40
2023/03/04 03:30:26;;;;;;;33.50;16.90;;;;;;;0.83;89.19;98603.02;108003;1306;22689;-40
2023/03/04 03:32:51;;;;;;;34.10;18.30;;;;;;;0.85;89.17;98604.84;108026;1306;22225;-41
2023/03/04 03:35:16;;;;;;;33.90;17.90;;;;;;;0.84;89.15;98608.16;108059;1306;23008;-41
2023/03/04 03:37:42;;;;;;;32.20;17.80;;;;;;;0.75;89.08;98614.60;107854;1307;22427;-41
2023/03/04 03:40:08;;;;;;;30.30;17.40;;;;;;;0.85;89.02;98614.36;108032;1306;23485;-41
2023/03/04 03:42:33;;;;;;;33.00;17.50;;;;;;;0.79;88.95;98614.50;107996;1306;23083;-41
2023/03/04 03:44:58;;;;;;;32.30;19.10;;;;;;;0.84;88.79;98620.08;108062;1306;22933;-41
2023/03/04 03:47:24;;;;;;;31.10;17.70;;;;;;;0.79;88.75;98619.50;108011;1306;23148;-41
2023/03/04 03:49:49;;;;;;;34.20;18.40;;;;;;;0.81;88.49;98627.40;108035;1306;23179;-44
2023/03/04 03:52:14;;;;;;;32.40;17.80;;;;;;;0.85;88.40;98634.02;107988;1306;22276;-40
2023/03/04 03:54:40;;;;;;;32.40;17.90;;;;;;;0.86;88.19;98634.14;108025;1306;23160;-41
2023/03/04 03:57:05;;;;;;;31.10;17.00;;;;;;;0.88;88.05;98637.20;108029;1306;22226;-42
2023/03/04 03:59:30;;;;;;;31.60;17.60;;;;;;;0.88;87.96;98643.77;108040;1307;22417;-42
2023/03/04 04:01:56;;;;;;;33.10;17.30;;;;;;;0.84;87.77;98643.70;108031;1306;24465;-40
2023/03/04 04:04:21;;;;;;;31.50;17.50;;;;;;;0.81;87.73;98643.28;108038;1306;23227;-40
2023/03/04 04:06:46;;;;;;;31.90;16.90;;;;;;;0.80;87.65;98640.36;108022;1306;22226;-40
2023/03/04 04:09:11;;;;;;;32.50;17.00;;;;;;;0.72;87.39;98641.94;108030;1306;22387;-41
2023/03/04 04:11:37;;;;;;;28.50;16.10;;;;;;;0.74;87.43;98642.91;108036;1306;23067;-40
2023/03/04 04:14:02;;;;;;;26.20;14.90;;;;;;;0.80;87.58;98641.92;108058;1306;22232;-40
2023/03/04 04:16:28;;;;;;;29.20;15.60;;;;;;;0.78;87.31;98641.09;108034;1307;23020;-41
2023/03/04 04:18:53;;;;;;;28.20;15.20;;;;;;;0.77;87.09;98640.61;108016;1306;23178;-41
2023/03/04 04:21:18;;;;;;;26.30;15.70;;;;;;;0.75;87.17;98640.32;108033;1306;22249;-40
2023/03/04 04:23:44;;;;;;;25.10;14.90;;;;;;;0.81;87.08;98641.38;108017;1306;22247;-40
2023/03/04 04:26:09;;;;;;;29.90;15.30;;;;;;;0.78;86.68;98639.55;108043;1306;22207;-40
2023/03/04 04:28:34;;;;;;;26.50;15.00;;;;;;;0.78;86.67;98636.44;108029;1306;22219;-41
2023/03/04 04:31:00;;;;;;;25.10;14.50;;;;;;;0.77;86.59;98641.64;108044;1306;22412;-41
2023/03/04 04:33:25;;;;;;;30.10;14.40;;;;;;;0.75;86.39;98640.31;107999;1306;22212;-40
2023/03/04 04:35:50;;;;;;;27.10;14.40;;;;;;;0.75;86.36;98636.70;108037;1306;22430;-40
2023/03/04 04:38:16;;;;;;;21.50;13.10;;;;;;;0.78;86.36;98637.13;108030;1306;23419;-40
2023/03/04 04:40:41;;;;;;;25.70;13.50;;;;;;;0.77;86.20;98636.66;108034;1306;22464;-40
2023/03/04 04:43:07;;;;;;;26.30;13.80;;;;;;;0.71;86.38;98638.50;108013;1306;22392;-40
2023/03/04 04:45:33;;;;;;;24.50;13.60;;;;;;;0.75;86.15;98639.96;108031;1306;22199;-41
2023/03/04 04:47:59;;;;;;;23.30;13.50;;;;;;;0.80;85.83;98640.02;108036;1306;22232;-40
2023/03/04 04:50:25;;;;;;;22.60;13.70;;;;;;;0.80;85.71;98641.23;108014;1306;23117;-41
2023/03/04 04:52:50;;;;;;;20.80;12.60;;;;;;;0.81;85.65;98644.83;108042;1306;22265;-40
2023/03/04 04:55:16;;;;;;;27.20;13.20;;;;;;;0.77;85.51;98636.66;108060;1306;22233;-41
2023/03/04 04:57:42;;;;;;;26.00;14.10;;;;;;;0.71;85.37;98631.11;108039;1306;22903;-41
2023/03/04 05:00:08;;;;;;;22.30;12.80;;;;;;;0.75;85.41;98635.98;108043;1306;22378;-40
2023/03/04 05:02:35;;;;;;;19.80;12.20;;;;;;;0.80;85.45;98638.97;108015;1306;22310;-41
2023/03/04 05:05:01;;;;;;;23.60;13.20;;;;;;;0.78;85.24;98634.70;108005;1306;23023;-41
2023/03/04 05:07:27;;;;;;;20.50;12.20;;;;;;;0.80;85.19;98633.48;108061;1306;22246;-39
2023/03/04 05:09:52;;;;;;;21.10;13.00;;;;;;;0.80;85.19;98635.55;108018;1306;22647;-40
2023/03/04 05:12:18;;;;;;;23.10;13.00;;;;;;;0.81;85.23;98638.42;108023;1306;22644;-40
2023/03/04 05:14:43;;;;;;;24.60;12.50;;;;;;;0.85;85.09;98635.40;108028;1306;22224;-41
2023/03/04 05:17:08;;;;;;;25.50;13.60;;;;;;;0.79;84.96;98636.95;108028;1306;23086;-41
2023/03/04 05:19:33;;;;;;;23.50;13.20;;;;;;;0.78;84.94;98632.48;108038;1306;22412;-40
2023/03/04 05:21:59;;;;;;;24.50;13.10;;;;;;;0.81;85.12;98631.52;108045;1306;22209;-41
2023/03/04 05:24:24;;;;;;;26.60;14.00;;;;;;;0.81;85.16;98634.48;108042;1306;22235;-40
2023/03/04 05:26:49;;;;;;;24.50;12.60;;;;;;;0.83;85.11;98638.39;107843;1306;22226;-40
2023/03/04 05:29:15;;;;;;;23.00;12.80;;;;;;;0.88;84.93;98634.27;108046;1306;24216;-40
2023/03/04 05:31:40;;;;;;;22.20;12.60;;;;;;;0.89;84.90;98637.53;108016;1306;22974;-40
2023/03/04 05:34:05;;;;;;;27.20;13.00;;;;;;;0.90;84.96;98632.16;108029;1306;22399;-40
2023/03/04 05:36:30;;;;;;;22.00;13.10;;;;;;;0.89;84.98;98631.15;108035;1306;22392;-40
2023/03/04 05:38:56;;;;;;;23.90;13.30;;;;;;;0.95;84.84;98630.11;108035;1304;23523;-40
2023/03/04 05:41:21;;;;;;;27.30;13.50;;;;;;;0.93;84.78;98632.77;108028;1306;22247;-40
2023/03/04 05:43:48;;;;;;;26.80;14.90;;;;;;;1.00;84.63;98632.08;108027;1306;22233;-40
2023/03/04 05:46:15;;;;;;;29.60;15.00;;;;;;;0.98;84.63;98634.52;108026;1306;23336;-40
2023/03/04 05:48:41;;;;;;;25.70;14.20;;;;;;;1.00;84.72;98636.74;108023;1306;22467;-40
2023/03/04 05:51:07;;;;;;;28.20;16.10;;;;;;;1.01;84.54;98634.28;108024;1306;22368;-40
2023/03/04 05:53:33;;;;;;;25.40;14.60;;;;;;;1.04;84.49;98639.20;108019;1307;22953;-40
2023/03/04 05:55:58;;;;;;;26.30;14.60;;;;;;;1.08;84.38;98637.02;108001;1306;22864;-40
2023/03/04 05:58:24;;;;;;;27.50;14.30;;;;;;;1.06;84.36;98634.14;108027;1306;22402;-42
2023/03/04 06:00:58;;;;;;;23.80;13.70;;;;;;;1.04;84.34;98631.94;108011;1306;22228;-41
2023/03/04 06:03:23;;;;;;;26.40;14.10;;;;;;;1.06;84.29;98630.70;108025;1306;22286;-40
2023/03/04 06:05:49;;;;;;;25.60;14.00;;;;;;;1.02;84.33;98623.02;107907;1306;23016;-40
2023/03/04 06:08:14;;;;;;;27.90;14.00;;;;;;;1.04;84.37;98619.88;108008;1306;22240;-40
2023/03/04 06:10:40;;;;;;;30.00;14.90;;;;;;;1.04;84.28;98626.23;108037;1306;22404;-40
2023/03/04 06:13:06;;;;;;;24.80;14.10;;;;;;;0.99;84.47;98621.56;108027;1306;22500;-40
2023/03/04 06:15:32;;;;;;;27.40;14.10;;;;;;;0.99;84.45;98615.52;108038;1306;22211;-40
2023/03/04 06:17:57;;;;;;;25.20;14.00;;;;;;;0.94;84.45;98622.72;108030;1306;22216;-40
2023/03/04 06:20:23;;;;;;;28.90;15.90;;;;;;;1.00;84.29;98621.36;108033;1306;23004;-41
2023/03/04 06:22:48;;;;;;;28.50;16.20;;;;;;;1.03;84.17;98619.38;108008;1306;23038;-43
2023/03/04 06:25:14;;;;;;;31.50;17.50;;;;;;;0.97;84.10;98616.44;107815;1306;22224;-41
2023/03/04 06:27:39;;;;;;;28.00;14.90;;;;;;;0.98;84.35;98615.73;108031;1306;22212;-41
2023/03/04 06:30:05;;;;;;;29.10;15.90;;;;;;;1.01;84.23;98615.13;107816;1307;22227;-41
2023/03/04 06:32:30;;;;;;;28.60;15.40;;;;;;;1.01;84.27;98609.59;108037;1306;22302;-40
2023/03/04 06:34:56;;;;;;;35.30;18.50;;;;;;;1.01;84.13;98608.05;107656;1307;22981;-41
2023/03/04 06:37:21;;;;;;;28.50;16.20;;;;;;;1.04;84.32;98607.09;108050;1306;22217;-40
2023/03/04 06:39:47;;;;;;;26.40;15.00;;;;;;;1.05;84.31;98603.95;108015;1306;23147;-41
2023/03/04 06:42:12;;;;;;;30.60;15.60;;;;;;;1.04;84.23;98607.95;108016;1306;22679;-40
2023/03/04 06:44:37;;;;;;;31.70;16.70;;;;;;;1.10;84.33;98603.48;108029;1306;22302;-41
2023/03/04 06:47:03;;;;;;;27.80;15.30;;;;;;;1.15;84.32;98609.90;108028;1306;22930;-40
2023/03/04 06:49:29;;;;;;;27.70;14.70;;;;;;;1.17;84.19;98609.49;108008;1306;22251;-41
2023/03/04 06:51:54;;;;;;;30.50;15.40;;;;;;;1.21;84.12;98611.81;108039;1306;22702;-41
2023/03/04 06:54:20;;;;;;;32.60;16.20;;;;;;;1.16;84.24;98612.64;108048;1306;23652;-40
2023/03/04 06:56:45;;;;;;;28.80;17.40;;;;;;;1.18;84.26;98615.67;108021;1306;22280;-40
2023/03/04 06:59:10;;;;;;;30.30;16.80;;;;;;;1.23;84.25;98614.87;108036;1306;22367;-40
2023/03/04 07:01:36;;;;;;;35.40;16.80;;;;;;;1.24;84.26;98617.95;108016;1306;22356;-40
2023/03/04 07:04:02;;;;;;;32.90;16.90;;;;;;;1.21;84.24;98618.52;108029;1306;23392;-40
2023/03/04 07:06:28;;;;;;;39.90;20.20;;;;;;;1.20;84.48;98614.26;107819;1307;22425;-41
2023/03/04 07:08:54;;;;;;;40.90;20.60;;;;;;;1.22;84.58;98619.38;108037;1306;22596;-40
2023/03/04 07:11:21;;;;;;;33.40;18.30;;;;;;;1.25;84.50;98616.36;108040;1306;23189;-40
2023/03/04 07:13:46;;;;;;;30.60;16.50;;;;;;;1.24;84.53;98609.65;108046;1283;22254;-41
2023/03/04 07:16:16;;;;;;;35.00;17.30;;;;;;;1.27;84.49;98609.37;108031;1306;22930;-41
2023/03/04 07:18:43;;;;;;;31.00;17.50;;;;;;;1.29;84.64;98610.19;108022;1306;22359;-41
2023/03/04 07:21:11;;;;;;;68.10;34.00;;;;;;;1.33;84.54;98606.63;108042;1306;22247;-41
2023/03/04 07:23:36;;;;;;;52.90;24.50;;;;;;;1.32;84.55;98605.09;108037;1306;22263;-40
2023/03/04 07:26:02;;;;;;;69.40;31.40;;;;;;;1.37;84.48;98598.05;108038;1306;22299;-41
2023/03/04 07:28:28;;;;;;;49.10;23.80;;;;;;;1.41;84.30;98601.23;108009;1306;23268;-40
2023/03/04 07:30:53;;;;;;;34.90;18.70;;;;;;;1.39;84.26;98592.99;108009;1306;22388;-41
2023/03/04 07:33:18;;;;;;;34.40;18.40;;;;;;;1.35;84.41;98594.83;108031;1306;23641;-40
2023/03/04 07:35:44;;;;;;;33.10;19.90;;;;;;;1.33;84.57;98595.92;108018;1306;22203;-40
2023/03/04 07:38:09;;;;;;;30.80;16.40;;;;;;;1.26;85.02;98596.11;108016;1306;24843;-41
2023/03/04 07:40:34;;;;;;;35.60;16.30;;;;;;;1.31;84.84;98604.11;108021;1306;22701;-41
2023/03/04 07:43:00;;;;;;;28.40;16.50;;;;;;;1.22;85.04;98603.15;108024;1306;22213;-40
2023/03/04 07:45:25;;;;;;;33.30;15.30;;;;;;;1.22;85.38;98605.56;108019;1306;22979;-41
2023/03/04 07:47:51;;;;;;;29.70;15.30;;;;;;;1.25;85.14;98598.05;108010;1306;22252;-40
2023/03/04 07:50:17;;;;;;;29.90;16.90;;;;;;;1.31;85.05;98600.63;108010;1306;22235;-41
2023/03/04 07:52:46;;;;;;;41.50;22.00;;;;;;;1.35;84.99;98597.09;108025;1306;22228;-40
2023/03/04 07:55:13;;;;;;;47.90;22.50;;;;;;;1.35;84.99;98601.91;108034;1306;22220;-40
2023/03/04 07:57:40;;;;;;;39.60;19.90;;;;;;;1.37;84.91;98600.80;108027;1306;22225;-41
2023/03/04 08:00:07;;;;;;;30.50;16.40;;;;;;;1.40;85.02;98597.45;108037;1306;22224;-41
2023/03/04 08:02:32;;;;;;;31.50;16.60;;;;;;;1.47;84.90;98598.62;108040;1306;23130;-41
2023/03/04 08:04:58;;;;;;;33.30;15.50;;;;;;;1.46;84.73;98597.09;108029;1306;23003;-41
2023/03/04 08:07:23;;;;;;;55.30;24.00;;;;;;;1.50;84.65;98598.88;108050;1306;22186;-41
2023/03/04 08:09:48;;;;;;;46.40;21.90;;;;;;;1.50;84.37;98595.23;107962;1292;24215;-40
2023/03/04 08:12:14;;;;;;;43.30;20.40;;;;;;;1.54;84.25;98590.98;108002;1292;22377;-41
2023/03/04 08:14:39;;;;;;;44.00;19.30;;;;;;;1.53;84.37;98592.05;108022;1306;22222;-40
2023/03/04 08:17:04;;;;;;;31.30;15.30;;;;;;;1.48;84.44;98594.61;108020;1306;22249;-43
2023/03/04 08:19:30;;;;;;;32.60;15.80;;;;;;;1.53;84.46;98592.05;108028;1306;22224;-40
2023/03/04 08:21:55;;;;;;;21.70;12.80;;;;;;;1.54;84.35;98588.39;108017;1306;22306;-40
2023/03/04 08:24:20;;;;;;;27.60;14.10;;;;;;;1.56;84.24;98586.08;108039;1306;22393;-41
2023/03/04 08:26:49;;;;;;;28.70;14.90;;;;;;;1.57;84.14;98585.54;108042;1306;22125;-41
2023/03/04 08:29:19;;;;;;;26.50;14.00;;;;;;;1.60;83.90;98582.70;108024;1306;22501;-40
2023/03/04 08:31:45;;;;;;;23.70;13.40;;;;;;;1.61;83.88;98582.30;108037;1306;22515;-43
2023/03/04 08:34:12;;;;;;;33.50;14.90;;;;;;;1.62;83.68;98587.30;108036;1306;22974;-41
2023/03/04 08:36:37;;;;;;;32.40;15.80;;;;;;;1.61;83.77;98580.26;108054;1306;22239;-40
2023/03/04 08:39:04;;;;;;;29.30;15.10;;;;;;;1.63;83.95;98573.97;108019;1306;22697;-41
2023/03/04 08:41:29;;;;;;;27.10;13.90;;;;;;;1.68;83.88;98572.75;108043;1306;22203;-41
2023/03/04 08:43:55;;;;;;;28.70;14.90;;;;;;;1.75;83.72;98573.92;108024;1306;22219;-39
2023/03/04 08:46:20;;;;;;;29.10;15.40;;;;;;;1.75;83.61;98566.70;108036;1306;22243;-40
2023/03/04 08:48:45;;;;;;;31.20;14.80;;;;;;;1.79;83.61;98567.94;108028;1306;22387;-40
2023/03/04 08:51:12;;;;;;;28.70;14.90;;;;;;;1.82;83.48;98566.45;108039;1306;22390;-40
2023/03/04 08:53:38;;;;;;;32.60;14.90;;;;;;;1.80;83.45;98567.73;108038;1306;22391;-41
2023/03/04 08:56:05;;;;;;;29.60;15.30;;;;;;;1.83;83.50;98565.23;108026;1306;23143;-41
2023/03/04 08:58:30;;;;;;;28.00;14.10;;;;;;;1.87;83.42;98565.95;108020;1306;23006;-41
2023/03/04 09:00:58;;;;;;;29.50;14.00;;;;;;;1.92;83.33;98572.55;108027;1306;22403;-41
2023/03/04 09:03:23;;;;;;;25.40;14.30;;;;;;;1.89;83.24;98570.20;108028;1306;22190;-41
2023/03/04 09:05:49;;;;;;;31.10;14.90;;;;;;;1.90;83.34;98567.25;108020;1306;22398;-42
2023/03/04 09:08:15;;;;;;;35.20;15.00;;;;;;;1.92;83.32;98564.42;107807;1306;22371;-42
2023/03/04 09:10:42;;;;;;;29.60;14.40;;;;;;;1.96;83.27;98564.64;108027;1306;22268;-40
2023/03/04 09:13:10;;;;;;;21.80;12.50;;;;;;;2.01;83.27;98557.38;108046;1306;22214;-41
2023/03/04 09:15:36;;;;;;;31.70;15.10;;;;;;;2.01;83.19;98562.05;108062;1306;22224;-41
2023/03/04 09:18:04;;;;;;;33.30;14.30;;;;;;;2.04;83.23;98556.43;108030;1306;22233;-41
2023/03/04 09:20:31;;;;;;;27.20;13.40;;;;;;;2.10;83.23;98558.48;108037;1306;22991;-41
2023/03/04 09:22:56;;;;;;;25.00;14.30;;;;;;;2.13;83.08;98551.98;108035;1306;23269;-40
2023/03/04 09:25:22;;;;;;;26.90;13.40;;;;;;;2.15;83.05;98549.14;108032;1306;22446;-40
2023/03/04 09:27:47;;;;;;;35.60;14.70;;;;;;;2.19;82.96;98551.27;108041;1306;22202;-40
2023/03/04 09:30:13;;;;;;;32.20;14.50;;;;;;;2.16;82.91;98546.71;108012;1306;22265;-39
2023/03/04 09:32:40;;;;;;;28.30;13.90;;;;;;;2.18;82.97;98545.95;108034;1306;23059;-40
2023/03/04 09:35:06;;;;;;;27.40;14.50;;;;;;;2.18;82.94;98544.19;108039;1306;22918;-42
2023/03/04 09:37:32;;;;;;;28.90;13.60;;;;;;;2.09;82.98;98546.40;108026;1306;22401;-40
2023/03/04 09:39:58;;;;;;;29.60;14.70;;;;;;;2.05;83.28;98539.62;108047;1306;22313;-41
2023/03/04 09:42:33;;;;;;;33.20;16.20;;;;;;;2.11;83.17;98533.55;108022;1306;22382;-41
2023/03/04 09:44:59;;;;;;;32.60;14.20;;;;;;;2.06;83.60;98530.08;108029;1306;23000;-41
2023/03/04 09:47:25;;;;;;;27.70;13.20;;;;;;;2.10;83.53;98533.59;108026;1306;22222;-41
2023/03/04 09:49:57;;;;;;;34.50;14.00;;;;;;;2.07;83.60;98530.04;108033;1306;22338;-41
2023/03/04 09:52:56;;;;;;;30.00;13.10;;;;;;;2.07;83.90;98527.11;108045;1306;22286;-41
2023/03/04 09:55:36;;;;;;;25.10;12.70;;;;;;;2.07;84.00;98527.27;108038;1306;22169;-40
2023/03/04 09:58:20;;;;;;;28.10;12.80;;;;;;;2.07;84.15;98523.13;108042;1306;22274;-41
2023/03/04 10:01:10;;;;;;;22.00;11.20;;;;;;;2.10;84.44;98519.39;108072;1306;22940;-41
2023/03/04 10:03:51;;;;;;;26.40;12.70;;;;;;;2.09;84.71;98522.55;108023;1306;22233;-41
2023/03/04 10:06:21;;;;;;;27.00;13.80;;;;;;;2.08;84.79;98515.33;108042;1306;22243;-42
2023/03/04 10:08:52;;;;;;;29.90;13.00;;;;;;;2.12;84.86;98511.73;108037;1306;22967;-39
2023/03/04 10:12:00;;;;;;;27.90;13.90;;;;;;;2.18;84.72;98508.92;108027;1306;22233;-41
2023/03/04 10:14:52;;;;;;;27.10;12.70;;;;;;;2.18;84.80;98504.77;107945;1306;22251;-42
2023/03/04 10:17:22;;;;;;;28.30;12.80;;;;;;;2.20;85.16;98501.25;108029;1306;22330;-42
2023/03/04 10:20:18;;;;;;;26.80;13.10;;;;;;;2.25;85.02;98500.92;108048;1306;23107;-41
2023/03/04 10:22:45;;;;;;;22.30;12.20;;;;;;;2.27;85.24;98498.92;108025;1306;22211;-41
2023/03/04 10:25:24;;;;;;;26.10;13.10;;;;;;;2.32;85.35;98495.86;108028;1306;22279;-42
2023/03/04 10:27:51;;;;;;;18.60;11.40;;;;;;;2.38;85.48;98487.67;108041;1306;23145;-41
2023/03/04 10:30:31;;;;;;;26.40;12.40;;;;;;;2.48;85.05;98486.64;108021;1306;22214;-41
2023/03/04 10:32:56;;;;;;;28.00;13.10;;;;;;;2.54;84.90;98483.65;108014;1306;22221;-40
2023/03/04 10:35:27;;;;;;;28.00;13.70;;;;;;;2.62;84.67;98479.91;108029;1306;22377;-42
2023/03/04 10:37:53;;;;;;;30.40;13.80;;;;;;;2.71;84.55;98475.77;108046;1306;22396;-40
2023/03/04 10:40:22;;;;;;;29.20;13.50;;;;;;;2.68;84.54;98475.36;108020;1306;22461;-41
2023/03/04 10:42:49;;;;;;;28.00;12.70;;;;;;;2.69;84.66;98474.46;108041;1306;22386;-42
2023/03/04 10:45:21;;;;;;;27.10;13.60;;;;;;;2.73;84.57;98470.34;108049;1306;22219;-42
2023/03/04 10:47:57;;;;;;;30.60;14.90;;;;;;;2.70;84.77;98465.59;108051;1306;22211;-40
2023/03/04 10:50:27;;;;;;;29.70;14.50;;;;;;;2.70;84.99;98460.05;108039;1306;22270;-41
2023/03/04 10:52:54;;;;;;;29.70;13.30;;;;;;;2.75;85.12;98459.54;108053;1306;22489;-40
2023/03/04 10:55:40;;;;;;;;;;;;;;;2.79;85.07;98463.20;108057;1306;22475;-40
2023/03/04 10:58:06;;;;;;;24.00;12.40;;;;;;;2.78;84.97;98462.20;108031;1306;22220;-40
2023/03/04 11:00:36;;;;;;;28.60;13.90;;;;;;;2.75;85.29;98459.19;108061;1306;22221;-41
2023/03/04 11:03:35;;;;;;;28.60;14.50;;;;;;;2.81;85.35;98455.67;108015;1306;22630;-39
2023/03/04 11:06:14;;;;;;;27.30;13.00;;;;;;;2.84;85.18;98455.21;107234;1310;22396;-40
2023/03/04 11:08:41;;;;;;;23.10;13.60;;;;;;;2.79;85.63;98452.44;107188;1314;22264;-40
2023/03/04 11:11:24;;;;;;;23.90;14.00;;;;;;;2.84;85.58;98453.30;107308;1313;22382;-41
2023/03/04 11:13:52;;;;;;;33.00;15.00;;;;;;;2.86;85.44;98452.00;107291;1307;22456;-41
2023/03/04 11:16:27;;;;;;;36.40;16.40;;;;;;;2.90;85.55;98453.09;107262;1305;23028;-40
2023/03/04 11:18:58;;;;;;;33.70;16.10;;;;;;;2.90;85.44;98455.69;107211;1313;22281;-41
2023/03/04 11:21:27;;;;;;;29.90;16.10;;;;;;;2.82;85.82;98457.17;107270;1305;22317;-40